Time;durP1;ratioP1;P1;durP2;ratioP2;P2;SDS_P1;SDS_P2;PMS_P1;PMS_P2;Temp;Humidity;BMP_temperature;BMP_pressure;BME280_temperature;BME280_humidity;BME280_pressure;Samples;Min_cycle;Max_cycle;Signal;HPM_P1;HPM_P2
2023/08/27 18:54:48;;;;;;;;;;;;;;;19.17;67.74;100168.42;105132;1295;613204;-88
2023/08/27 18:58:15;;;;;;;;;;;;;;;19.10;67.89;100163.24;105357;1295;58835;-88
2023/08/27 19:01:41;;;;;;;;;;;;;;;19.06;67.84;100163.49;105443;1289;59139;-87
2023/08/27 19:05:08;;;;;;;;;;;;;;;19.02;68.02;100159.56;105341;1290;72128;-88
2023/08/27 19:08:34;;;;;;;;;;;;;;;18.98;68.10;100164.33;101535;1288;5473260;-87
2023/08/27 19:12:01;;;;;;;;;;;;;;;18.96;68.12;100160.80;105694;1289;72687;-88
2023/08/27 19:15:27;;;;;;;;;;;;;;;18.92;68.24;100156.27;105603;1292;59157;-87
2023/08/27 19:18:53;;;;;;;;;;;;;;;18.89;68.20;100156.11;105621;1289;59138;-88
2023/08/27 19:22:20;;;;;;;;;;;;;;;18.87;68.30;100147.31;105556;1290;73921;-88
2023/08/27 19:25:46;;;;;;;;;;;;;;;18.86;68.33;100155.74;105763;1289;66957;-88
2023/08/27 19:29:12;;;;;;;;;;;;;;;18.82;68.36;100172.54;106476;1287;72592;-88
2023/08/27 19:32:39;;;;;;;;;;;;;;;18.75;68.36;100178.20;105604;1289;59649;-87
2023/08/27 19:36:06;;;;;;;;;;;;;;;18.70;68.44;100180.95;105600;1289;60110;-88
2023/08/27 19:39:32;;;;;;;;;;;;;;;18.68;68.65;100178.52;105695;1287;73028;-87
2023/08/27 19:42:58;;;;;;;;;;;;;;;18.63;68.62;100171.41;105582;1292;67331;-87
2023/08/27 19:46:24;;;;;;;;;;;;;;;18.60;68.62;100175.09;105668;1292;71229;-88
2023/08/27 19:49:51;;;;;;;;;;;;;;;18.57;68.78;100186.55;105754;1286;59560;-88
2023/08/27 19:53:20;;;;;;;;;;;;;;;18.56;68.81;100192.03;105807;1286;59615;-87
2023/08/27 19:56:47;;;;;;;;;;;;;;;18.52;68.87;100187.54;105671;1286;72985;-88
2023/08/27 20:00:13;;;;;;;;;;;;;;;18.50;68.99;100182.92;105696;1287;67517;-87
2023/08/27 20:03:40;;;;;;;;;;;;;;;18.48;68.99;100164.71;105710;1286;72035;-87
2023/08/27 20:07:06;;;;;;;;;;;;;;;18.47;68.97;100158.34;105643;1285;59832;-87
2023/08/27 20:10:34;;;;;;;;;;;;;;;18.42;69.11;100163.99;106000;1286;59885;-88
2023/08/27 20:13:59;;;;;;;;;;;;;;;18.41;69.15;100170.33;105601;1286;75817;-87
2023/08/27 20:17:25;;;;;;;;;;;;;;;18.40;69.17;100175.80;105707;1285;66237;-90
2023/08/27 20:20:54;;;;;;;;;;;;;;;18.39;69.33;100183.71;105615;1286;70173;-91
2023/08/27 20:24:22;;;;;;;;;;;;;;;18.40;69.33;100181.38;105752;1286;59659;-90
2023/08/27 20:27:48;;;;;;;;;;;;;;;18.41;69.31;100169.27;105600;1286;59495;-90
2023/08/27 20:31:14;;;;;;;;;;;;;;;18.39;69.30;100165.90;106258;1285;71766;-90
2023/08/27 20:34:41;;;;;;;;;;;;;;;18.38;69.45;100164.59;105701;1286;67505;-90
2023/08/27 20:38:07;;;;;;;;;;;;;;;18.37;69.43;100166.20;105615;1286;72048;-90
2023/08/27 20:41:32;;;;;;;;;;;;;;;18.35;69.46;100174.36;105724;1286;59554;-90
2023/08/27 20:44:57;;;;;;;;;;;;;;;18.34;69.60;100173.72;105684;1290;61480;-88
2023/08/27 20:48:23;;;;;;;;;;;;;;;18.32;69.66;100168.59;105639;1285;71552;-88
2023/08/27 20:51:49;;;;;;;;;;;;;;;18.32;69.63;100165.62;105664;1286;66342;-87
2023/08/27 20:55:16;;;;;;;;;;;;;;;18.31;69.79;100160.45;105648;1286;71191;-87
2023/08/27 20:58:42;;;;;;;;;;;;;;;18.30;69.67;100149.83;105580;1285;59577;-87
2023/08/27 21:02:11;;;;;;;;;;;;;;;18.29;69.78;100149.70;105689;1286;59650;-87
2023/08/27 21:05:38;;;;;;;;;;;;;;;18.31;69.81;100160.11;105667;1286;71578;-88
2023/08/27 21:09:05;;;;;;;;;;;;;;;18.30;69.84;100164.67;105703;1286;67980;-87
2023/08/27 21:12:31;;;;;;;;;;;;;;;18.28;69.91;100169.13;106489;1286;72152;-88
2023/08/27 21:15:57;;;;;;;;;;;;;;;18.30;69.91;100166.96;105711;1290;60810;-88
2023/08/27 21:19:24;;;;;;;;;;;;;;;18.27;69.97;100167.30;105693;1289;59147;-88
2023/08/27 21:22:50;;;;;;;;;;;;;;;18.28;70.03;100166.87;105736;1286;71764;-88
2023/08/27 21:26:17;;;;;;;;;;;;;;;18.31;70.10;100163.05;105756;1286;67205;-88
2023/08/27 21:29:43;;;;;;;;;;;;;;;18.31;70.07;100166.35;105701;1285;72446;-87
2023/08/27 21:33:10;;;;;;;;;;;;;;;18.33;70.02;100172.55;105685;1286;59250;-88
2023/08/27 21:36:36;;;;;;;;;;;;;;;18.27;70.00;100171.12;105709;1286;59452;-88
2023/08/27 21:40:03;;;;;;;;;;;;;;;18.23;70.10;100174.66;105761;1286;71998;-89
2023/08/27 21:43:29;;;;;;;;;;;;;;;18.19;70.16;100172.61;105545;1289;69898;-89
2023/08/27 21:46:56;;;;;;;;;;;;;;;18.19;70.23;100179.08;105724;1286;71261;-89
2023/08/27 21:50:23;;;;;;;;;;;;;;;18.19;70.14;100181.17;105729;1286;59663;-88
2023/08/27 21:53:49;;;;;;;;;;;;;;;18.15;70.17;100177.39;105598;1286;60007;-88
2023/08/27 21:57:15;;;;;;;;;;;;;;;18.12;70.23;100176.71;105565;1286;72926;-88
2023/08/27 22:00:42;;;;;;;;;;;;;;;18.10;70.27;100179.59;105779;1286;70063;-88
2023/08/27 22:04:08;;;;;;;;;;;;;;;18.08;70.35;100181.24;105727;1286;71075;-89
2023/08/27 22:07:34;;;;;;;;;;;;;;;18.07;70.35;100189.87;105837;1286;58361;-89
2023/08/27 22:11:02;;;;;;;;;;;;;;;18.08;70.25;100192.07;105587;1286;59515;-89
2023/08/27 22:14:27;;;;;;;;;;;;;;;18.05;70.34;100188.39;105324;1286;73919;-89
2023/08/27 22:17:54;;;;;;;;;;;;;;;17.99;70.22;100179.82;105559;1286;67207;-89
2023/08/27 22:21:20;;;;;;;;;;;;;;;17.94;70.29;100181.00;105632;1286;71298;-89
2023/08/27 22:24:47;;;;;;;;;;;;;;;17.90;70.19;100187.81;105474;1287;59259;-88
2023/08/27 22:28:13;;;;;;;;;;;;;;;17.86;70.38;100187.45;105615;1285;61937;-89
2023/08/27 22:31:40;;;;;;;;;;;;;;;17.83;70.31;100184.66;105948;1289;71683;-89
2023/08/27 22:35:06;;;;;;;;;;;;;;;17.80;70.35;100185.53;105627;1286;67368;-88
2023/08/27 22:38:33;;;;;;;;;;;;;;;17.79;70.40;100186.81;105542;1286;71305;-88
2023/08/27 22:41:59;;;;;;;;;;;;;;;17.77;70.55;100184.30;105746;1285;60144;-88
2023/08/27 22:45:26;;;;;;;;;;;;;;;17.78;70.53;100194.19;105616;1285;59538;-88
2023/08/27 22:48:52;;;;;;;;;;;;;;;17.78;70.56;100204.13;105603;1286;71867;-88
2023/08/27 22:52:19;;;;;;;;;;;;;;;17.76;70.58;100196.58;105520;1286;69959;-88
2023/08/27 22:55:46;;;;;;;;;;;;;;;17.75;70.60;100187.87;105546;1286;72576;-88
2023/08/27 22:59:11;;;;;;;;;;;;;;;17.76;70.57;100185.04;105755;1286;59471;-89
2023/08/27 23:02:38;;;;;;;;;;;;;;;17.77;70.68;100183.80;105666;1286;59771;-89
2023/08/27 23:06:04;;;;;;;;;;;;;;;17.77;70.69;100181.34;105786;1285;71541;-88
2023/08/27 23:09:31;;;;;;;;;;;;;;;17.76;70.70;100184.52;105775;1286;67523;-88
2023/08/27 23:12:58;;;;;;;;;;;;;;;17.77;70.84;100186.58;105780;1285;72687;-88
2023/08/27 23:16:24;;;;;;;;;;;;;;;17.76;71.10;100192.18;105741;1286;59121;-88
2023/08/27 23:19:50;;;;;;;;;;;;;;;17.73;71.11;100190.24;105470;1286;59844;-88
2023/08/27 23:23:16;;;;;;;;;;;;;;;17.69;70.97;100182.13;105640;1286;71823;-88
2023/08/27 23:26:43;;;;;;;;;;;;;;;17.69;71.01;100185.59;105670;1286;69004;-88
2023/08/27 23:30:11;;;;;;;;;;;;;;;17.68;71.10;100185.83;106160;1285;71721;-88
2023/08/27 23:33:36;;;;;;;;;;;;;;;17.66;71.16;100186.81;105678;1289;59745;-88
2023/08/27 23:37:02;;;;;;;;;;;;;;;17.63;71.12;100183.14;105720;1289;59731;-88
2023/08/27 23:40:29;;;;;;;;;;;;;;;17.60;71.12;100183.10;105712;1286;73315;-89
2023/08/27 23:43:55;;;;;;;;;;;;;;;17.58;71.14;100181.30;105459;1285;67377;-89
2023/08/27 23:47:22;;;;;;;;;;;;;;;17.55;71.17;100166.64;105499;1289;71833;-88
2023/08/27 23:50:48;;;;;;;;;;;;;;;17.48;71.30;100164.91;106394;1286;58852;-88
2023/08/27 23:54:14;;;;;;;;;;;;;;;17.46;71.37;100173.20;105606;1285;59768;-88
2023/08/27 23:57:41;;;;;;;;;;;;;;;17.45;71.48;100178.63;106176;1285;72294;-88
